sensor_id;sensor_type;location;lat;lon;timestamp;P1;durP1;ratioP1;P2;durP2;ratioP2
32786;SDS011;19139;49.372;8.580;2023-08-06T00:00:54;1.03;;;0.97;;
32786;SDS011;19139;49.372;8.580;2023-08-06T00:03:21;1.10;;;0.90;;
32786;SDS011;19139;49.372;8.580;2023-08-06T00:05:48;1.30;;;1.10;;
32786;SDS011;19139;49.372;8.580;2023-08-06T00:08:15;1.27;;;1.17;;
32786;SDS011;19139;49.372;8.580;2023-08-06T00:10:41;1.70;;;1.23;;
32786;SDS011;19139;49.372;8.580;2023-08-06T00:13:08;1.17;;;1.07;;
32786;SDS011;19139;49.372;8.580;2023-08-06T00:15:35;1.50;;;0.97;;
32786;SDS011;19139;49.372;8.580;2023-08-06T00:18:01;1.30;;;1.10;;
32786;SDS011;19139;49.372;8.580;2023-08-06T00:20:28;0.93;;;0.93;;
32786;SDS011;19139;49.372;8.580;2023-08-06T00:22:55;1.03;;;0.93;;
32786;SDS011;19139;49.372;8.580;2023-08-06T00:25:21;1.30;;;1.20;;
32786;SDS011;19139;49.372;8.580;2023-08-06T00:27:48;0.90;;;0.90;;
32786;SDS011;19139;49.372;8.580;2023-08-06T00:30:15;1.10;;;1.00;;
32786;SDS011;19139;49.372;8.580;2023-08-06T00:32:41;0.90;;;0.90;;
32786;SDS011;19139;49.372;8.580;2023-08-06T00:35:08;1.20;;;0.97;;
32786;SDS011;19139;49.372;8.580;2023-08-06T00:37:35;1.47;;;1.00;;
32786;SDS011;19139;49.372;8.580;2023-08-06T00:40:02;1.33;;;0.97;;
32786;SDS011;19139;49.372;8.580;2023-08-06T00:42:29;1.23;;;1.13;;
32786;SDS011;19139;49.372;8.580;2023-08-06T00:44:55;1.37;;;1.00;;
32786;SDS011;19139;49.372;8.580;2023-08-06T00:47:22;1.23;;;1.07;;
32786;SDS011;19139;49.372;8.580;2023-08-06T00:49:49;1.10;;;0.90;;
32786;SDS011;19139;49.372;8.580;2023-08-06T00:52:16;1.07;;;0.97;;
32786;SDS011;19139;49.372;8.580;2023-08-06T00:54:43;0.73;;;0.73;;
32786;SDS011;19139;49.372;8.580;2023-08-06T00:57:09;1.37;;;1.10;;
32786;SDS011;19139;49.372;8.580;2023-08-06T00:59:37;1.10;;;1.00;;
32786;SDS011;19139;49.372;8.580;2023-08-06T01:02:04;1.47;;;1.10;;
32786;SDS011;19139;49.372;8.580;2023-08-06T01:04:31;0.77;;;0.77;;
32786;SDS011;19139;49.372;8.580;2023-08-06T01:15:56;1.33;;;1.23;;
32786;SDS011;19139;49.372;8.580;2023-08-06T01:18:25;1.30;;;1.13;;
32786;SDS011;19139;49.372;8.580;2023-08-06T01:20:52;1.30;;;1.20;;
32786;SDS011;19139;49.372;8.580;2023-08-06T01:23:19;1.40;;;1.20;;
32786;SDS011;19139;49.372;8.580;2023-08-06T01:25:53;1.47;;;1.37;;
32786;SDS011;19139;49.372;8.580;2023-08-06T01:28:52;1.07;;;0.90;;
32786;SDS011;19139;49.372;8.580;2023-08-06T01:31:41;1.13;;;1.03;;
32786;SDS011;19139;49.372;8.580;2023-08-06T01:34:12;1.37;;;1.10;;
32786;SDS011;19139;49.372;8.580;2023-08-06T01:36:43;1.00;;;0.90;;
32786;SDS011;19139;49.372;8.580;2023-08-06T01:39:10;1.00;;;0.90;;
32786;SDS011;19139;49.372;8.580;2023-08-06T01:41:37;1.03;;;0.97;;
32786;SDS011;19139;49.372;8.580;2023-08-06T01:44:04;1.00;;;0.90;;
32786;SDS011;19139;49.372;8.580;2023-08-06T01:46:30;0.90;;;0.90;;
32786;SDS011;19139;49.372;8.580;2023-08-06T01:48:57;1.00;;;0.90;;
32786;SDS011;19139;49.372;8.580;2023-08-06T01:51:24;1.00;;;0.90;;
32786;SDS011;19139;49.372;8.580;2023-08-06T01:53:50;1.07;;;0.97;;
32786;SDS011;19139;49.372;8.580;2023-08-06T01:56:17;1.07;;;0.97;;
32786;SDS011;19139;49.372;8.580;2023-08-06T01:58:44;1.00;;;0.97;;
32786;SDS011;19139;49.372;8.580;2023-08-06T02:01:10;1.20;;;0.90;;
32786;SDS011;19139;49.372;8.580;2023-08-06T02:03:37;1.17;;;1.07;;
32786;SDS011;19139;49.372;8.580;2023-08-06T02:06:04;0.83;;;0.80;;
32786;SDS011;19139;49.372;8.580;2023-08-06T02:08:30;1.03;;;0.93;;
32786;SDS011;19139;49.372;8.580;2023-08-06T02:10:57;1.20;;;1.10;;
32786;SDS011;19139;49.372;8.580;2023-08-06T02:13:24;1.10;;;1.00;;
32786;SDS011;19139;49.372;8.580;2023-08-06T02:15:51;1.07;;;0.97;;
32786;SDS011;19139;49.372;8.580;2023-08-06T02:18:17;1.20;;;1.10;;
32786;SDS011;19139;49.372;8.580;2023-08-06T02:20:44;1.23;;;1.10;;
32786;SDS011;19139;49.372;8.580;2023-08-06T02:23:23;1.20;;;1.00;;
32786;SDS011;19139;49.372;8.580;2023-08-06T02:26:24;1.00;;;0.90;;
32786;SDS011;19139;49.372;8.580;2023-08-06T02:28:43;1.10;;;1.00;;
32786;SDS011;19139;49.372;8.580;2023-08-06T02:31:10;1.07;;;0.97;;
32786;SDS011;19139;49.372;8.580;2023-08-06T02:33:36;0.73;;;0.73;;
32786;SDS011;19139;49.372;8.580;2023-08-06T02:36:03;1.03;;;0.93;;
32786;SDS011;19139;49.372;8.580;2023-08-06T02:38:31;1.27;;;0.90;;
32786;SDS011;19139;49.372;8.580;2023-08-06T02:40:58;1.00;;;1.00;;
32786;SDS011;19139;49.372;8.580;2023-08-06T02:43:24;1.03;;;0.90;;
32786;SDS011;19139;49.372;8.580;2023-08-06T02:45:51;1.27;;;1.00;;
32786;SDS011;19139;49.372;8.580;2023-08-06T02:48:18;0.87;;;0.83;;
32786;SDS011;19139;49.372;8.580;2023-08-06T02:50:44;1.60;;;1.20;;
32786;SDS011;19139;49.372;8.580;2023-08-06T02:53:11;1.37;;;0.73;;
32786;SDS011;19139;49.372;8.580;2023-08-06T02:55:38;0.80;;;0.80;;
32786;SDS011;19139;49.372;8.580;2023-08-06T02:58:14;0.97;;;0.93;;
32786;SDS011;19139;49.372;8.580;2023-08-06T03:00:41;1.60;;;0.97;;
32786;SDS011;19139;49.372;8.580;2023-08-06T03:03:09;1.10;;;1.00;;
32786;SDS011;19139;49.372;8.580;2023-08-06T03:05:36;0.83;;;0.83;;
32786;SDS011;19139;49.372;8.580;2023-08-06T03:08:02;1.33;;;0.83;;
32786;SDS011;19139;49.372;8.580;2023-08-06T03:10:29;1.13;;;1.00;;
32786;SDS011;19139;49.372;8.580;2023-08-06T03:12:56;1.83;;;1.00;;
32786;SDS011;19139;49.372;8.580;2023-08-06T03:15:22;1.10;;;0.97;;
32786;SDS011;19139;49.372;8.580;2023-08-06T03:17:49;1.00;;;0.90;;
32786;SDS011;19139;49.372;8.580;2023-08-06T03:20:16;1.03;;;0.93;;
32786;SDS011;19139;49.372;8.580;2023-08-06T03:22:43;1.07;;;1.00;;
32786;SDS011;19139;49.372;8.580;2023-08-06T03:25:09;1.20;;;0.80;;
32786;SDS011;19139;49.372;8.580;2023-08-06T03:27:36;1.23;;;0.90;;
32786;SDS011;19139;49.372;8.580;2023-08-06T03:30:02;1.20;;;1.10;;
32786;SDS011;19139;49.372;8.580;2023-08-06T03:32:30;1.00;;;0.90;;
32786;SDS011;19139;49.372;8.580;2023-08-06T03:34:56;1.10;;;1.00;;
32786;SDS011;19139;49.372;8.580;2023-08-06T03:37:23;1.40;;;1.13;;
32786;SDS011;19139;49.372;8.580;2023-08-06T03:39:49;0.70;;;0.70;;
32786;SDS011;19139;49.372;8.580;2023-08-06T03:42:16;1.27;;;1.00;;
32786;SDS011;19139;49.372;8.580;2023-08-06T03:44:43;0.87;;;0.87;;
32786;SDS011;19139;49.372;8.580;2023-08-06T03:47:09;0.70;;;0.70;;
32786;SDS011;19139;49.372;8.580;2023-08-06T03:49:36;0.70;;;0.70;;
32786;SDS011;19139;49.372;8.580;2023-08-06T03:52:03;0.90;;;0.80;;
32786;SDS011;19139;49.372;8.580;2023-08-06T03:54:29;1.10;;;1.00;;
32786;SDS011;19139;49.372;8.580;2023-08-06T03:56:56;0.87;;;0.87;;
32786;SDS011;19139;49.372;8.580;2023-08-06T03:59:23;0.83;;;0.80;;
32786;SDS011;19139;49.372;8.580;2023-08-06T04:01:49;0.90;;;0.90;;
32786;SDS011;19139;49.372;8.580;2023-08-06T04:04:16;0.80;;;0.80;;
32786;SDS011;19139;49.372;8.580;2023-08-06T04:06:43;0.90;;;0.80;;
32786;SDS011;19139;49.372;8.580;2023-08-06T04:09:10;0.80;;;0.80;;
32786;SDS011;19139;49.372;8.580;2023-08-06T04:11:36;0.80;;;0.70;;
32786;SDS011;19139;49.372;8.580;2023-08-06T04:14:03;0.83;;;0.80;;
32786;SDS011;19139;49.372;8.580;2023-08-06T04:16:30;1.03;;;0.90;;
32786;SDS011;19139;49.372;8.580;2023-08-06T04:18:56;0.90;;;0.63;;
32786;SDS011;19139;49.372;8.580;2023-08-06T04:21:24;0.80;;;0.80;;
32786;SDS011;19139;49.372;8.580;2023-08-06T04:23:50;1.17;;;0.70;;
32786;SDS011;19139;49.372;8.580;2023-08-06T04:26:17;1.13;;;0.90;;
32786;SDS011;19139;49.372;8.580;2023-08-06T04:28:44;1.23;;;1.00;;
32786;SDS011;19139;49.372;8.580;2023-08-06T04:31:10;1.10;;;1.00;;
32786;SDS011;19139;49.372;8.580;2023-08-06T04:33:37;1.60;;;1.10;;
32786;SDS011;19139;49.372;8.580;2023-08-06T04:36:04;1.17;;;0.73;;
32786;SDS011;19139;49.372;8.580;2023-08-06T04:38:31;1.07;;;0.80;;
32786;SDS011;19139;49.372;8.580;2023-08-06T04:40:57;1.07;;;0.83;;
32786;SDS011;19139;49.372;8.580;2023-08-06T04:43:24;1.20;;;0.90;;
32786;SDS011;19139;49.372;8.580;2023-08-06T04:45:51;0.90;;;0.90;;
32786;SDS011;19139;49.372;8.580;2023-08-06T04:48:19;1.33;;;1.17;;
32786;SDS011;19139;49.372;8.580;2023-08-06T04:50:47;1.00;;;0.90;;
32786;SDS011;19139;49.372;8.580;2023-08-06T04:53:15;0.93;;;0.93;;
32786;SDS011;19139;49.372;8.580;2023-08-06T04:55:42;1.30;;;1.20;;
32786;SDS011;19139;49.372;8.580;2023-08-06T04:58:09;1.07;;;0.73;;
32786;SDS011;19139;49.372;8.580;2023-08-06T05:00:36;0.70;;;0.70;;
32786;SDS011;19139;49.372;8.580;2023-08-06T05:03:03;0.90;;;0.90;;
32786;SDS011;19139;49.372;8.580;2023-08-06T05:05:29;1.07;;;0.97;;
32786;SDS011;19139;49.372;8.580;2023-08-06T05:07:56;1.00;;;0.90;;
32786;SDS011;19139;49.372;8.580;2023-08-06T05:10:26;1.07;;;0.97;;
32786;SDS011;19139;49.372;8.580;2023-08-06T05:12:53;0.90;;;0.90;;
32786;SDS011;19139;49.372;8.580;2023-08-06T05:15:20;0.80;;;0.80;;
32786;SDS011;19139;49.372;8.580;2023-08-06T05:17:47;1.03;;;0.90;;
32786;SDS011;19139;49.372;8.580;2023-08-06T05:20:14;0.80;;;0.80;;
32786;SDS011;19139;49.372;8.580;2023-08-06T05:22:41;0.77;;;0.73;;
32786;SDS011;19139;49.372;8.580;2023-08-06T05:25:07;0.57;;;0.57;;
32786;SDS011;19139;49.372;8.580;2023-08-06T05:27:34;2.00;;;1.00;;
32786;SDS011;19139;49.372;8.580;2023-08-06T05:30:01;0.90;;;0.60;;
32786;SDS011;19139;49.372;8.580;2023-08-06T05:32:27;0.90;;;0.70;;
32786;SDS011;19139;49.372;8.580;2023-08-06T05:34:54;0.83;;;0.83;;
32786;SDS011;19139;49.372;8.580;2023-08-06T05:37:21;0.90;;;0.70;;
32786;SDS011;19139;49.372;8.580;2023-08-06T05:39:47;1.00;;;1.00;;
32786;SDS011;19139;49.372;8.580;2023-08-06T05:42:14;0.93;;;0.80;;
32786;SDS011;19139;49.372;8.580;2023-08-06T05:44:41;1.60;;;1.30;;
32786;SDS011;19139;49.372;8.580;2023-08-06T05:47:08;0.83;;;0.83;;
32786;SDS011;19139;49.372;8.580;2023-08-06T05:49:34;0.97;;;0.90;;
32786;SDS011;19139;49.372;8.580;2023-08-06T05:52:01;0.80;;;0.80;;
32786;SDS011;19139;49.372;8.580;2023-08-06T05:54:29;1.27;;;1.03;;
32786;SDS011;19139;49.372;8.580;2023-08-06T05:56:55;1.67;;;0.80;;
32786;SDS011;19139;49.372;8.580;2023-08-06T05:59:22;0.97;;;0.90;;
32786;SDS011;19139;49.372;8.580;2023-08-06T06:01:49;1.00;;;0.80;;
32786;SDS011;19139;49.372;8.580;2023-08-06T06:04:15;1.10;;;0.93;;
32786;SDS011;19139;49.372;8.580;2023-08-06T06:06:42;0.67;;;0.67;;
32786;SDS011;19139;49.372;8.580;2023-08-06T06:09:09;0.80;;;0.80;;
32786;SDS011;19139;49.372;8.580;2023-08-06T06:11:35;1.00;;;0.90;;
32786;SDS011;19139;49.372;8.580;2023-08-06T06:14:02;0.70;;;0.70;;
32786;SDS011;19139;49.372;8.580;2023-08-06T06:16:29;0.90;;;0.70;;
32786;SDS011;19139;49.372;8.580;2023-08-06T06:18:55;0.90;;;0.77;;
32786;SDS011;19139;49.372;8.580;2023-08-06T06:21:23;0.70;;;0.70;;
32786;SDS011;19139;49.372;8.580;2023-08-06T06:23:50;0.77;;;0.53;;
32786;SDS011;19139;49.372;8.580;2023-08-06T06:26:19;1.43;;;0.90;;
32786;SDS011;19139;49.372;8.580;2023-08-06T06:28:46;0.97;;;0.80;;
32786;SDS011;19139;49.372;8.580;2023-08-06T06:31:13;0.73;;;0.73;;
32786;SDS011;19139;49.372;8.580;2023-08-06T06:33:39;1.37;;;0.70;;
32786;SDS011;19139;49.372;8.580;2023-08-06T06:36:06;0.63;;;0.60;;
32786;SDS011;19139;49.372;8.580;2023-08-06T06:38:34;1.27;;;0.80;;
32786;SDS011;19139;49.372;8.580;2023-08-06T06:41:00;0.87;;;0.80;;
32786;SDS011;19139;49.372;8.580;2023-08-06T06:43:29;0.70;;;0.70;;
32786;SDS011;19139;49.372;8.580;2023-08-06T06:45:56;0.73;;;0.60;;
32786;SDS011;19139;49.372;8.580;2023-08-06T06:48:33;0.77;;;0.70;;
32786;SDS011;19139;49.372;8.580;2023-08-06T06:51:00;0.97;;;0.87;;
32786;SDS011;19139;49.372;8.580;2023-08-06T06:53:26;1.00;;;0.80;;
32786;SDS011;19139;49.372;8.580;2023-08-06T06:55:54;0.70;;;0.60;;
32786;SDS011;19139;49.372;8.580;2023-08-06T06:58:31;0.70;;;0.60;;
32786;SDS011;19139;49.372;8.580;2023-08-06T07:00:58;1.10;;;0.90;;
32786;SDS011;19139;49.372;8.580;2023-08-06T07:03:25;0.77;;;0.60;;
32786;SDS011;19139;49.372;8.580;2023-08-06T07:05:56;1.03;;;0.47;;
32786;SDS011;19139;49.372;8.580;2023-08-06T07:08:25;0.73;;;0.73;;
32786;SDS011;19139;49.372;8.580;2023-08-06T07:10:59;0.80;;;0.50;;
32786;SDS011;19139;49.372;8.580;2023-08-06T07:13:30;0.73;;;0.70;;
32786;SDS011;19139;49.372;8.580;2023-08-06T07:15:57;1.07;;;0.70;;
32786;SDS011;19139;49.372;8.580;2023-08-06T07:18:23;0.70;;;0.60;;
32786;SDS011;19139;49.372;8.580;2023-08-06T07:20:51;0.57;;;0.57;;
32786;SDS011;19139;49.372;8.580;2023-08-06T07:23:22;0.67;;;0.67;;
32786;SDS011;19139;49.372;8.580;2023-08-06T07:25:50;0.80;;;0.70;;
32786;SDS011;19139;49.372;8.580;2023-08-06T07:28:17;0.50;;;0.50;;
32786;SDS011;19139;49.372;8.580;2023-08-06T07:30:44;0.60;;;0.50;;
32786;SDS011;19139;49.372;8.580;2023-08-06T07:33:12;0.80;;;0.80;;
32786;SDS011;19139;49.372;8.580;2023-08-06T07:35:39;0.80;;;0.60;;
32786;SDS011;19139;49.372;8.580;2023-08-06T07:38:06;0.50;;;0.50;;
32786;SDS011;19139;49.372;8.580;2023-08-06T07:40:32;1.20;;;0.70;;
32786;SDS011;19139;49.372;8.580;2023-08-06T07:43:03;0.87;;;0.70;;
32786;SDS011;19139;49.372;8.580;2023-08-06T07:45:33;1.17;;;0.63;;
32786;SDS011;19139;49.372;8.580;2023-08-06T07:48:03;0.67;;;0.60;;
32786;SDS011;19139;49.372;8.580;2023-08-06T07:50:31;0.70;;;0.70;;
32786;SDS011;19139;49.372;8.580;2023-08-06T07:52:57;0.50;;;0.47;;
32786;SDS011;19139;49.372;8.580;2023-08-06T07:55:24;1.03;;;0.60;;
32786;SDS011;19139;49.372;8.580;2023-08-06T07:57:51;0.53;;;0.53;;
32786;SDS011;19139;49.372;8.580;2023-08-06T08:00:18;0.90;;;0.70;;
32786;SDS011;19139;49.372;8.580;2023-08-06T08:02:45;1.33;;;0.60;;
32786;SDS011;19139;49.372;8.580;2023-08-06T08:05:12;0.70;;;0.53;;
32786;SDS011;19139;49.372;8.580;2023-08-06T08:07:39;0.97;;;0.77;;
32786;SDS011;19139;49.372;8.580;2023-08-06T08:10:06;0.70;;;0.40;;
32786;SDS011;19139;49.372;8.580;2023-08-06T08:12:33;0.50;;;0.50;;
32786;SDS011;19139;49.372;8.580;2023-08-06T08:15:00;0.57;;;0.50;;
32786;SDS011;19139;49.372;8.580;2023-08-06T08:17:26;0.60;;;0.60;;
32786;SDS011;19139;49.372;8.580;2023-08-06T08:19:53;0.70;;;0.60;;
32786;SDS011;19139;49.372;8.580;2023-08-06T08:22:19;0.50;;;0.50;;
32786;SDS011;19139;49.372;8.580;2023-08-06T08:24:46;0.67;;;0.57;;
32786;SDS011;19139;49.372;8.580;2023-08-06T08:27:13;0.63;;;0.63;;
32786;SDS011;19139;49.372;8.580;2023-08-06T08:29:40;0.73;;;0.73;;
32786;SDS011;19139;49.372;8.580;2023-08-06T08:32:07;0.40;;;0.40;;
32786;SDS011;19139;49.372;8.580;2023-08-06T08:34:33;0.50;;;0.30;;
32786;SDS011;19139;49.372;8.580;2023-08-06T08:37:00;0.80;;;0.60;;
32786;SDS011;19139;49.372;8.580;2023-08-06T08:39:26;1.23;;;0.70;;
32786;SDS011;19139;49.372;8.580;2023-08-06T08:41:53;1.60;;;0.60;;
32786;SDS011;19139;49.372;8.580;2023-08-06T08:44:20;0.60;;;0.50;;
32786;SDS011;19139;49.372;8.580;2023-08-06T08:46:47;0.50;;;0.40;;
32786;SDS011;19139;49.372;8.580;2023-08-06T08:49:15;0.70;;;0.60;;
32786;SDS011;19139;49.372;8.580;2023-08-06T08:51:42;0.60;;;0.60;;
32786;SDS011;19139;49.372;8.580;2023-08-06T08:54:11;0.50;;;0.40;;
32786;SDS011;19139;49.372;8.580;2023-08-06T08:56:40;0.60;;;0.60;;
32786;SDS011;19139;49.372;8.580;2023-08-06T08:59:07;0.97;;;0.67;;
32786;SDS011;19139;49.372;8.580;2023-08-06T09:01:33;0.60;;;0.40;;
32786;SDS011;19139;49.372;8.580;2023-08-06T09:04:01;0.70;;;0.70;;
32786;SDS011;19139;49.372;8.580;2023-08-06T09:06:29;1.17;;;0.60;;
32786;SDS011;19139;49.372;8.580;2023-08-06T09:09:01;1.13;;;0.70;;
32786;SDS011;19139;49.372;8.580;2023-08-06T09:11:36;0.97;;;0.47;;
32786;SDS011;19139;49.372;8.580;2023-08-06T09:14:08;0.50;;;0.50;;
32786;SDS011;19139;49.372;8.580;2023-08-06T09:16:35;0.40;;;0.40;;
32786;SDS011;19139;49.372;8.580;2023-08-06T09:19:08;0.50;;;0.50;;
32786;SDS011;19139;49.372;8.580;2023-08-06T09:21:41;0.70;;;0.47;;
32786;SDS011;19139;49.372;8.580;2023-08-06T09:24:09;0.90;;;0.60;;
32786;SDS011;19139;49.372;8.580;2023-08-06T09:26:37;0.57;;;0.50;;
32786;SDS011;19139;49.372;8.580;2023-08-06T09:29:05;0.50;;;0.50;;
32786;SDS011;19139;49.372;8.580;2023-08-06T09:31:40;0.80;;;0.60;;
32786;SDS011;19139;49.372;8.580;2023-08-06T09:34:21;0.50;;;0.50;;
32786;SDS011;19139;49.372;8.580;2023-08-06T09:36:49;0.87;;;0.60;;
32786;SDS011;19139;49.372;8.580;2023-08-06T09:39:27;0.50;;;0.50;;
32786;SDS011;19139;49.372;8.580;2023-08-06T09:41:58;0.50;;;0.50;;
32786;SDS011;19139;49.372;8.580;2023-08-06T09:44:26;0.70;;;0.53;;
32786;SDS011;19139;49.372;8.580;2023-08-06T09:46:55;0.53;;;0.50;;
32786;SDS011;19139;49.372;8.580;2023-08-06T09:49:26;0.40;;;0.40;;
32786;SDS011;19139;49.372;8.580;2023-08-06T09:52:00;0.70;;;0.50;;
32786;SDS011;19139;49.372;8.580;2023-08-06T09:54:27;0.50;;;0.50;;
32786;SDS011;19139;49.372;8.580;2023-08-06T09:56:55;0.40;;;0.40;;
32786;SDS011;19139;49.372;8.580;2023-08-06T09:59:23;0.97;;;0.60;;
32786;SDS011;19139;49.372;8.580;2023-08-06T10:01:50;0.50;;;0.40;;
32786;SDS011;19139;49.372;8.580;2023-08-06T10:04:19;0.60;;;0.60;;
32786;SDS011;19139;49.372;8.580;2023-08-06T10:06:52;0.43;;;0.43;;
32786;SDS011;19139;49.372;8.580;2023-08-06T10:09:20;0.60;;;0.50;;
32786;SDS011;19139;49.372;8.580;2023-08-06T10:11:49;0.50;;;0.50;;
32786;SDS011;19139;49.372;8.580;2023-08-06T10:14:28;0.63;;;0.53;;
32786;SDS011;19139;49.372;8.580;2023-08-06T10:16:59;0.50;;;0.50;;
32786;SDS011;19139;49.372;8.580;2023-08-06T10:19:26;0.40;;;0.40;;
32786;SDS011;19139;49.372;8.580;2023-08-06T10:22:07;0.63;;;0.50;;
32786;SDS011;19139;49.372;8.580;2023-08-06T10:24:48;1.10;;;0.50;;
32786;SDS011;19139;49.372;8.580;2023-08-06T10:27:22;0.90;;;0.50;;
32786;SDS011;19139;49.372;8.580;2023-08-06T10:32:52;0.50;;;0.50;;
32786;SDS011;19139;49.372;8.580;2023-08-06T10:38:02;0.40;;;0.40;;
32786;SDS011;19139;49.372;8.580;2023-08-06T10:40:30;0.50;;;0.40;;
32786;SDS011;19139;49.372;8.580;2023-08-06T10:42:59;0.50;;;0.47;;
32786;SDS011;19139;49.372;8.580;2023-08-06T10:45:27;0.40;;;0.40;;
32786;SDS011;19139;49.372;8.580;2023-08-06T10:47:57;0.40;;;0.40;;
32786;SDS011;19139;49.372;8.580;2023-08-06T10:50:24;0.30;;;0.30;;
32786;SDS011;19139;49.372;8.580;2023-08-06T10:52:51;0.50;;;0.50;;
32786;SDS011;19139;49.372;8.580;2023-08-06T10:55:22;0.50;;;0.50;;
32786;SDS011;19139;49.372;8.580;2023-08-06T10:57:50;0.30;;;0.30;;
32786;SDS011;19139;49.372;8.580;2023-08-06T11:00:17;0.40;;;0.40;;
32786;SDS011;19139;49.372;8.580;2023-08-06T11:02:45;0.40;;;0.40;;
32786;SDS011;19139;49.372;8.580;2023-08-06T11:05:14;0.30;;;0.30;;
32786;SDS011;19139;49.372;8.580;2023-08-06T11:07:41;0.50;;;0.30;;
32786;SDS011;19139;49.372;8.580;2023-08-06T11:10:09;0.83;;;0.40;;
32786;SDS011;19139;49.372;8.580;2023-08-06T11:12:39;0.53;;;0.53;;
32786;SDS011;19139;49.372;8.580;2023-08-06T11:15:06;0.50;;;0.50;;
32786;SDS011;19139;49.372;8.580;2023-08-06T11:17:34;0.60;;;0.40;;
32786;SDS011;19139;49.372;8.580;2023-08-06T11:20:03;0.40;;;0.30;;
32786;SDS011;19139;49.372;8.580;2023-08-06T11:22:31;0.30;;;0.30;;
32786;SDS011;19139;49.372;8.580;2023-08-06T11:24:58;0.27;;;0.27;;
32786;SDS011;19139;49.372;8.580;2023-08-06T11:27:27;0.40;;;0.40;;
32786;SDS011;19139;49.372;8.580;2023-08-06T11:29:55;0.40;;;0.30;;
32786;SDS011;19139;49.372;8.580;2023-08-06T11:32:22;0.20;;;0.20;;
32786;SDS011;19139;49.372;8.580;2023-08-06T11:34:48;0.30;;;0.30;;
32786;SDS011;19139;49.372;8.580;2023-08-06T11:37:15;0.40;;;0.30;;
32786;SDS011;19139;49.372;8.580;2023-08-06T11:39:46;0.33;;;0.30;;
32786;SDS011;19139;49.372;8.580;2023-08-06T11:42:16;0.37;;;0.37;;
32786;SDS011;19139;49.372;8.580;2023-08-06T11:44:43;0.53;;;0.30;;
32786;SDS011;19139;49.372;8.580;2023-08-06T11:47:15;0.40;;;0.20;;
32786;SDS011;19139;49.372;8.580;2023-08-06T11:49:49;0.30;;;0.30;;
32786;SDS011;19139;49.372;8.580;2023-08-06T11:54:45;0.47;;;0.37;;
32786;SDS011;19139;49.372;8.580;2023-08-06T11:57:13;1.07;;;0.60;;
32786;SDS011;19139;49.372;8.580;2023-08-06T11:59:43;0.90;;;0.30;;
32786;SDS011;19139;49.372;8.580;2023-08-06T12:02:11;0.60;;;0.47;;
32786;SDS011;19139;49.372;8.580;2023-08-06T12:04:57;0.60;;;0.40;;
32786;SDS011;19139;49.372;8.580;2023-08-06T12:07:31;0.30;;;0.30;;
32786;SDS011;19139;49.372;8.580;2023-08-06T12:09:59;0.40;;;0.40;;
32786;SDS011;19139;49.372;8.580;2023-08-06T12:12:26;0.67;;;0.50;;
32786;SDS011;19139;49.372;8.580;2023-08-06T12:14:53;0.87;;;0.47;;
32786;SDS011;19139;49.372;8.580;2023-08-06T12:17:20;0.30;;;0.30;;
32786;SDS011;19139;49.372;8.580;2023-08-06T12:19:48;0.27;;;0.23;;
32786;SDS011;19139;49.372;8.580;2023-08-06T12:22:15;0.23;;;0.20;;
32786;SDS011;19139;49.372;8.580;2023-08-06T12:24:42;0.50;;;0.40;;
32786;SDS011;19139;49.372;8.580;2023-08-06T12:27:10;0.30;;;0.30;;
32786;SDS011;19139;49.372;8.580;2023-08-06T12:29:40;0.40;;;0.40;;
32786;SDS011;19139;49.372;8.580;2023-08-06T12:32:08;0.30;;;0.30;;
32786;SDS011;19139;49.372;8.580;2023-08-06T12:34:38;0.40;;;0.37;;
32786;SDS011;19139;49.372;8.580;2023-08-06T12:37:18;0.30;;;0.30;;
32786;SDS011;19139;49.372;8.580;2023-08-06T12:39:45;0.40;;;0.40;;
32786;SDS011;19139;49.372;8.580;2023-08-06T12:42:11;0.47;;;0.40;;
32786;SDS011;19139;49.372;8.580;2023-08-06T12:44:38;0.93;;;0.40;;
32786;SDS011;19139;49.372;8.580;2023-08-06T12:47:05;0.57;;;0.30;;
32786;SDS011;19139;49.372;8.580;2023-08-06T12:49:32;0.40;;;0.40;;
32786;SDS011;19139;49.372;8.580;2023-08-06T12:51:59;1.03;;;0.40;;
32786;SDS011;19139;49.372;8.580;2023-08-06T12:54:26;0.40;;;0.30;;
32786;SDS011;19139;49.372;8.580;2023-08-06T12:56:53;0.40;;;0.30;;
32786;SDS011;19139;49.372;8.580;2023-08-06T12:59:20;0.57;;;0.30;;
32786;SDS011;19139;49.372;8.580;2023-08-06T13:01:48;0.53;;;0.37;;
32786;SDS011;19139;49.372;8.580;2023-08-06T13:04:15;0.30;;;0.20;;
32786;SDS011;19139;49.372;8.580;2023-08-06T13:06:47;0.57;;;0.30;;
32786;SDS011;19139;49.372;8.580;2023-08-06T13:09:15;0.40;;;0.40;;
32786;SDS011;19139;49.372;8.580;2023-08-06T13:11:42;0.40;;;0.30;;
32786;SDS011;19139;49.372;8.580;2023-08-06T13:14:12;0.50;;;0.50;;
32786;SDS011;19139;49.372;8.580;2023-08-06T13:16:40;0.60;;;0.30;;
32786;SDS011;19139;49.372;8.580;2023-08-06T13:19:09;0.40;;;0.30;;
32786;SDS011;19139;49.372;8.580;2023-08-06T13:24:17;0.60;;;0.40;;
32786;SDS011;19139;49.372;8.580;2023-08-06T13:26:45;0.20;;;0.20;;
32786;SDS011;19139;49.372;8.580;2023-08-06T13:29:11;0.40;;;0.40;;
32786;SDS011;19139;49.372;8.580;2023-08-06T13:31:38;0.40;;;0.40;;
32786;SDS011;19139;49.372;8.580;2023-08-06T13:34:05;0.53;;;0.40;;
32786;SDS011;19139;49.372;8.580;2023-08-06T13:36:31;0.80;;;0.53;;
32786;SDS011;19139;49.372;8.580;2023-08-06T13:38:58;0.30;;;0.30;;
32786;SDS011;19139;49.372;8.580;2023-08-06T13:41:25;0.30;;;0.30;;
32786;SDS011;19139;49.372;8.580;2023-08-06T13:43:51;0.63;;;0.40;;
32786;SDS011;19139;49.372;8.580;2023-08-06T13:46:18;0.50;;;0.30;;
32786;SDS011;19139;49.372;8.580;2023-08-06T13:48:47;0.40;;;0.30;;
32786;SDS011;19139;49.372;8.580;2023-08-06T13:51:17;0.40;;;0.30;;
32786;SDS011;19139;49.372;8.580;2023-08-06T13:53:45;0.30;;;0.30;;
32786;SDS011;19139;49.372;8.580;2023-08-06T13:56:12;0.30;;;0.30;;
32786;SDS011;19139;49.372;8.580;2023-08-06T13:58:41;0.37;;;0.37;;
32786;SDS011;19139;49.372;8.580;2023-08-06T14:01:09;0.93;;;0.30;;
32786;SDS011;19139;49.372;8.580;2023-08-06T14:03:35;0.53;;;0.40;;
32786;SDS011;19139;49.372;8.580;2023-08-06T14:06:02;0.53;;;0.40;;
32786;SDS011;19139;49.372;8.580;2023-08-06T14:08:29;0.40;;;0.40;;
32786;SDS011;19139;49.372;8.580;2023-08-06T14:10:56;0.40;;;0.33;;
32786;SDS011;19139;49.372;8.580;2023-08-06T14:13:22;0.40;;;0.40;;
32786;SDS011;19139;49.372;8.580;2023-08-06T14:15:49;0.50;;;0.40;;
32786;SDS011;19139;49.372;8.580;2023-08-06T14:18:16;0.20;;;0.20;;
32786;SDS011;19139;49.372;8.580;2023-08-06T14:20:43;0.40;;;0.40;;
32786;SDS011;19139;49.372;8.580;2023-08-06T14:23:10;0.33;;;0.30;;
32786;SDS011;19139;49.372;8.580;2023-08-06T14:25:38;0.40;;;0.40;;
32786;SDS011;19139;49.372;8.580;2023-08-06T14:28:05;0.33;;;0.33;;
32786;SDS011;19139;49.372;8.580;2023-08-06T14:30:33;0.30;;;0.30;;
32786;SDS011;19139;49.372;8.580;2023-08-06T14:33:00;0.40;;;0.40;;
32786;SDS011;19139;49.372;8.580;2023-08-06T14:35:46;0.60;;;0.30;;
32786;SDS011;19139;49.372;8.580;2023-08-06T14:38:13;0.30;;;0.30;;
32786;SDS011;19139;49.372;8.580;2023-08-06T14:40:40;0.33;;;0.30;;
32786;SDS011;19139;49.372;8.580;2023-08-06T14:43:06;0.60;;;0.47;;
32786;SDS011;19139;49.372;8.580;2023-08-06T14:45:33;0.50;;;0.40;;
32786;SDS011;19139;49.372;8.580;2023-08-06T14:48:03;0.77;;;0.53;;
32786;SDS011;19139;49.372;8.580;2023-08-06T14:50:30;0.30;;;0.30;;
32786;SDS011;19139;49.372;8.580;2023-08-06T14:52:56;0.40;;;0.40;;
32786;SDS011;19139;49.372;8.580;2023-08-06T14:55:24;0.33;;;0.33;;
32786;SDS011;19139;49.372;8.580;2023-08-06T14:57:51;0.30;;;0.30;;
32786;SDS011;19139;49.372;8.580;2023-08-06T15:00:18;0.40;;;0.40;;
32786;SDS011;19139;49.372;8.580;2023-08-06T15:02:46;0.40;;;0.40;;
32786;SDS011;19139;49.372;8.580;2023-08-06T15:05:13;0.40;;;0.40;;
32786;SDS011;19139;49.372;8.580;2023-08-06T15:07:40;0.30;;;0.30;;
32786;SDS011;19139;49.372;8.580;2023-08-06T15:10:07;0.50;;;0.50;;
32786;SDS011;19139;49.372;8.580;2023-08-06T15:12:52;0.30;;;0.30;;